Time;durP1;ratioP1;P1;durP2;ratioP2;P2;SDS_P1;SDS_P2;PMS_P1;PMS_P2;Temp;Humidity;BMP_temperature;BMP_pressure;BME280_temperature;BME280_humidity;BME280_pressure;Samples;Min_cycle;Max_cycle;Signal;HPM_P1;HPM_P2
2022/03/22 00:00:49;;;;;;;13.73;12.32;;;13.50;55.50;;;;;;5034163;28;20197;-78
2022/03/22 00:03:16;;;;;;;12.13;10.77;;;13.50;55.50;;;;;;5034528;28;20563;-77
2022/03/22 00:05:44;;;;;;;11.43;9.90;;;13.50;55.60;;;;;;5052333;28;20575;-77
2022/03/22 00:08:11;;;;;;;12.10;10.15;;;13.50;55.60;;;;;;5051989;28;20192;-77
2022/03/22 00:10:38;;;;;;;10.88;9.77;;;13.40;55.40;;;;;;5052361;28;20181;-77
2022/03/22 00:13:22;;;;;;;11.32;10.13;;;13.50;55.60;;;;;;5052630;28;20176;-77
2022/03/22 00:15:48;;;;;;;13.75;11.23;;;13.40;55.50;;;;;;5052172;28;20206;-77
2022/03/22 00:18:14;;;;;;;14.60;12.23;;;13.40;55.50;;;;;;5034084;28;20165;-76
2022/03/22 00:20:42;;;;;;;15.30;13.13;;;13.40;55.50;;;;;;5052178;28;20608;-77
2022/03/22 00:23:07;;;;;;;14.80;12.48;;;13.40;55.50;;;;;;5052590;28;20519;-77
2022/03/22 00:25:33;;;;;;;13.57;10.57;;;13.30;55.50;;;;;;5039009;28;20176;-77
2022/03/22 00:28:01;;;;;;;13.73;11.70;;;13.30;55.50;;;;;;5051651;28;20205;-77
2022/03/22 00:30:29;;;;;;;17.15;11.35;;;13.30;55.50;;;;;;5051669;28;20185;-77
2022/03/22 00:32:58;;;;;;;13.20;10.98;;;13.20;55.50;;;;;;5051923;28;20215;-77
2022/03/22 00:35:26;;;;;;;13.57;11.00;;;13.20;55.50;;;;;;5051860;28;20603;-77
2022/03/22 00:37:53;;;;;;;12.85;11.15;;;13.20;55.50;;;;;;5051782;28;20629;-78
2022/03/22 00:40:21;;;;;;;13.00;10.68;;;13.20;55.60;;;;;;5051411;28;20201;-78
2022/03/22 00:42:48;;;;;;;12.52;10.57;;;13.20;55.60;;;;;;5051784;28;20575;-77
2022/03/22 00:45:16;;;;;;;11.98;10.70;;;13.10;55.50;;;;;;5051672;28;20184;-78
2022/03/22 00:47:47;;;;;;;14.30;11.43;;;13.10;55.60;;;;;;5051375;28;20223;-78
2022/03/22 00:50:16;;;;;;;15.00;12.02;;;13.10;55.60;;;;;;5058561;28;20188;-78
2022/03/22 00:52:42;;;;;;;12.50;11.00;;;13.00;55.50;;;;;;5063126;28;20179;-78
2022/03/22 00:55:10;;;;;;;12.15;10.02;;;13.00;55.50;;;;;;5050901;28;20176;-78
2022/03/22 00:57:36;;;;;;;12.85;11.00;;;13.00;55.50;;;;;;5061513;28;20651;-78
2022/03/22 01:00:06;;;;;;;16.25;12.07;;;13.00;55.60;;;;;;5071568;28;20188;-77
2022/03/22 01:02:37;;;;;;;12.93;10.60;;;13.00;55.70;;;;;;5058800;28;20199;-78
2022/03/22 01:05:06;;;;;;;13.20;11.68;;;12.90;55.60;;;;;;5071580;28;20168;-77
2022/03/22 01:07:33;;;;;;;13.52;11.57;;;12.90;55.60;;;;;;5071127;28;20200;-78
2022/03/22 01:10:00;;;;;;;14.80;11.57;;;12.90;55.70;;;;;;5071242;28;20282;-77
2022/03/22 01:12:27;;;;;;;12.95;10.25;;;12.80;55.60;;;;;;5071378;28;20243;-76
2022/03/22 01:14:52;;;;;;;13.80;11.27;;;12.80;55.70;;;;;;5036791;28;20606;-77
2022/03/22 01:17:19;;;;;;;11.90;9.97;;;12.80;55.70;;;;;;5053149;28;20221;-77
2022/03/22 01:19:45;;;;;;;15.40;11.75;;;12.80;55.70;;;;;;5053291;28;20219;-77
2022/03/22 01:22:12;;;;;;;12.30;10.15;;;12.80;55.70;;;;;;5070096;28;20168;-77
2022/03/22 01:24:38;;;;;;;15.70;10.65;;;12.70;55.60;;;;;;5071449;28;20554;-76
2022/03/22 01:27:04;;;;;;;12.30;11.03;;;12.70;55.70;;;;;;5071355;28;20196;-77
2022/03/22 01:29:30;;;;;;;12.45;10.30;;;12.70;55.70;;;;;;5071221;28;20213;-77
2022/03/22 01:31:55;;;;;;;15.03;11.20;;;12.70;55.70;;;;;;5071122;28;20251;-77
2022/03/22 01:34:21;;;;;;;12.87;10.80;;;12.60;55.70;;;;;;5036682;28;20593;-78
2022/03/22 01:36:47;;;;;;;12.70;11.20;;;12.60;55.70;;;;;;5071311;28;20172;-77
2022/03/22 01:39:13;;;;;;;15.15;10.82;;;12.60;55.80;;;;;;5078266;28;21001;-77
2022/03/22 01:41:39;;;;;;;12.70;10.73;;;12.50;55.70;;;;;;5071115;28;20214;-78
2022/03/22 01:44:04;;;;;;;13.00;11.60;;;12.50;55.70;;;;;;5071167;28;20575;-77
2022/03/22 01:46:35;;;;;;;17.00;11.43;;;12.50;55.80;;;;;;5071061;28;20660;-77
2022/03/22 01:49:02;;;;;;;13.05;10.77;;;12.50;55.80;;;;;;5070829;28;20744;-77
2022/03/22 01:51:32;;;;;;;11.70;10.15;;;12.40;55.70;;;;;;5070993;28;20527;-77
2022/03/22 01:53:58;;;;;;;14.52;12.35;;;12.40;55.80;;;;;;5070994;28;20160;-78
2022/03/22 01:56:24;;;;;;;12.40;10.65;;;12.40;55.80;;;;;;5071189;28;20214;-77
2022/03/22 01:58:50;;;;;;;12.87;9.93;;;12.30;55.80;;;;;;5070667;28;20183;-77
2022/03/22 02:06:51;;;;;;;13.65;11.23;;;12.30;55.80;;;;;;5055816;28;20203;-76
2022/03/22 02:09:17;;;;;;;11.27;9.93;;;12.30;55.90;;;;;;5074293;28;20238;-78
2022/03/22 02:11:42;;;;;;;12.80;10.73;;;12.20;55.90;;;;;;5074632;28;20623;-77
2022/03/22 02:14:09;;;;;;;11.70;10.03;;;12.20;55.90;;;;;;5057092;28;20226;-77
2022/03/22 02:16:35;;;;;;;13.65;10.68;;;12.10;56.00;;;;;;5080301;28;20263;-77
2022/03/22 02:19:02;;;;;;;12.88;11.02;;;12.10;56.00;;;;;;5074152;28;20211;-77
2022/03/22 02:21:31;;;;;;;12.88;11.32;;;12.10;56.00;;;;;;5074356;28;20164;-77
2022/03/22 02:23:57;;;;;;;13.88;10.65;;;12.00;56.00;;;;;;5074305;28;20168;-78
2022/03/22 02:26:26;;;;;;;13.57;10.35;;;12.00;56.10;;;;;;5074342;28;20207;-78
2022/03/22 02:28:53;;;;;;;13.50;10.65;;;12.00;56.10;;;;;;5073938;28;20324;-77
2022/03/22 02:31:20;;;;;;;11.70;9.18;;;12.00;56.10;;;;;;5056315;28;20183;-77
2022/03/22 02:33:47;;;;;;;11.63;9.07;;;11.90;56.00;;;;;;5074415;28;20161;-78
2022/03/22 02:36:12;;;;;;;15.43;9.45;;;11.90;55.90;;;;;;5074258;28;20207;-76
2022/03/22 02:38:38;;;;;;;10.77;9.57;;;11.90;56.00;;;;;;5073784;28;20187;-77
2022/03/22 02:41:07;;;;;;;11.38;10.18;;;11.90;56.00;;;;;;5074015;28;20167;-77
2022/03/22 02:43:34;;;;;;;13.90;10.60;;;11.90;56.00;;;;;;5074054;28;20172;-77
2022/03/22 02:46:00;;;;;;;11.37;9.60;;;11.80;56.10;;;;;;5075467;28;20518;-77
2022/03/22 02:48:27;;;;;;;11.40;10.20;;;11.80;56.00;;;;;;5057958;28;20776;-77
2022/03/22 02:50:53;;;;;;;13.32;9.98;;;11.80;56.10;;;;;;5058486;28;20188;-77
2022/03/22 02:53:19;;;;;;;11.52;10.13;;;11.80;56.10;;;;;;5077869;28;20213;-77
2022/03/22 02:55:45;;;;;;;12.43;10.63;;;11.70;56.00;;;;;;5057497;28;20168;-77
2022/03/22 02:58:10;;;;;;;12.47;10.50;;;11.70;56.00;;;;;;5074569;28;20191;-77
2022/03/22 03:00:36;;;;;;;12.57;9.17;;;11.70;56.10;;;;;;5074799;28;20196;-76
2022/03/22 03:03:04;;;;;;;11.55;9.88;;;11.60;56.00;;;;;;5073695;28;20246;-76
2022/03/22 03:05:30;;;;;;;14.02;9.82;;;11.60;56.60;;;;;;5055841;28;20531;-76
2022/03/22 03:07:55;;;;;;;14.10;11.07;;;11.60;56.10;;;;;;5073267;28;20192;-76
2022/03/22 03:10:22;;;;;;;12.13;10.00;;;11.50;56.10;;;;;;5073229;28;20626;-76
2022/03/22 03:12:56;;;;;;;13.18;10.00;;;11.50;56.20;;;;;;5073383;28;20157;-76
2022/03/22 03:15:22;;;;;;;12.20;10.68;;;11.50;56.20;;;;;;5073522;28;20535;-76
2022/03/22 03:17:47;;;;;;;11.30;9.40;;;11.40;56.20;;;;;;5089896;22;20306;-77
2022/03/22 03:20:13;;;;;;;10.70;9.40;;;11.50;56.80;;;;;;5065263;28;20161;-77
2022/03/22 03:22:39;;;;;;;12.80;10.70;;;11.40;56.20;;;;;;5055706;28;20251;-77
2022/03/22 03:25:08;;;;;;;12.48;10.20;;;11.40;56.20;;;;;;5055641;28;20161;-77
2022/03/22 03:27:35;;;;;;;13.52;10.82;;;11.40;56.20;;;;;;5034873;28;20255;-77
2022/03/22 03:30:03;;;;;;;12.82;11.43;;;11.40;56.20;;;;;;5053023;28;20193;-77
2022/03/22 03:32:29;;;;;;;11.48;10.27;;;11.40;56.30;;;;;;5035668;28;20153;-77
2022/03/22 03:34:55;;;;;;;12.40;11.10;;;11.40;56.30;;;;;;5035229;28;20667;-77
2022/03/22 03:37:23;;;;;;;11.80;9.63;;;11.30;56.20;;;;;;5035046;28;20604;-77
2022/03/22 03:39:49;;;;;;;11.35;9.77;;;11.30;56.20;;;;;;5052898;28;20172;-78
2022/03/22 03:42:15;;;;;;;13.80;9.40;;;11.30;56.20;;;;;;5035367;28;20176;-77
2022/03/22 03:47:26;;;;;;;14.05;10.45;;;11.30;56.20;;;;;;5040282;28;20263;-77
2022/03/22 03:50:11;;;;;;;13.57;10.40;;;11.30;56.20;;;;;;5053223;28;20675;-77
2022/03/22 03:52:38;;;;;;;10.95;9.27;;;11.20;56.10;;;;;;5046991;28;20244;-77
2022/03/22 03:55:06;;;;;;;12.35;10.02;;;11.20;56.10;;;;;;5044299;28;20192;-77
2022/03/22 03:57:32;;;;;;;11.60;9.35;;;11.20;56.20;;;;;;5018053;28;20197;-77
2022/03/22 03:59:59;;;;;;;12.68;10.25;;;11.10;56.10;;;;;;5052386;28;20169;-77
2022/03/22 04:02:25;;;;;;;13.38;9.63;;;11.10;56.20;;;;;;5021341;28;20689;-78
2022/03/22 04:04:55;;;;;;;15.45;10.80;;;11.10;56.20;;;;;;5015365;28;20266;-78
2022/03/22 04:07:40;;;;;;;13.50;9.38;;;11.10;56.40;;;;;;5050422;28;20215;-77
2022/03/22 04:10:06;;;;;;;12.25;10.32;;;11.10;56.20;;;;;;5047774;28;20645;-77
2022/03/22 04:12:39;;;;;;;12.48;10.07;;;11.00;56.20;;;;;;5014787;28;20177;-77
2022/03/22 04:15:05;;;;;;;11.93;10.65;;;11.00;56.20;;;;;;5026693;28;20248;-77
2022/03/22 04:17:32;;;;;;;15.55;11.07;;;11.00;56.20;;;;;;5013992;28;20201;-77
2022/03/22 04:19:57;;;;;;;13.95;9.40;;;11.00;56.20;;;;;;5032103;28;20166;-77
2022/03/22 04:22:25;;;;;;;12.30;10.00;;;11.00;56.20;;;;;;5032263;28;20698;-77
2022/03/22 04:25:10;;;;;;;11.80;9.32;;;11.00;56.20;;;;;;5037861;28;20232;-77
2022/03/22 04:33:25;;;;;;;14.32;11.20;;;11.00;56.20;;;;;;5032401;28;20178;-78
2022/03/22 04:35:51;;;;;;;15.80;9.40;;;10.90;56.10;;;;;;5032797;28;20170;-78
2022/03/22 04:38:16;;;;;;;16.77;10.37;;;10.90;56.10;;;;;;5013993;28;20200;-78
2022/03/22 04:40:43;;;;;;;11.48;9.07;;;11.00;56.30;;;;;;5031915;28;20184;-77
2022/03/22 04:43:08;;;;;;;13.90;9.80;;;10.90;56.10;;;;;;5032039;28;20170;-77
2022/03/22 04:45:35;;;;;;;13.70;10.20;;;10.90;56.10;;;;;;5032024;28;20177;-77
2022/03/22 04:48:01;;;;;;;9.60;8.00;;;10.90;56.10;;;;;;5010506;28;20216;-78
2022/03/22 04:50:27;;;;;;;10.27;9.13;;;10.90;56.10;;;;;;5029222;28;20170;-78
2022/03/22 04:58:22;;;;;;;12.45;9.25;;;10.90;56.00;;;;;;5031505;28;20359;-77
2022/03/22 05:00:48;;;;;;;11.27;8.30;;;10.80;56.00;;;;;;5034588;28;20174;-77
2022/03/22 05:03:14;;;;;;;11.00;8.97;;;10.80;56.00;;;;;;5034044;28;20165;-77
2022/03/22 05:08:24;;;;;;;13.02;8.52;;;10.70;56.00;;;;;;5031313;28;20205;-77
2022/03/22 05:10:50;;;;;;;11.30;8.80;;;10.70;56.00;;;;;;5031580;28;20162;-77
2022/03/22 05:13:16;;;;;;;11.10;8.53;;;10.70;56.00;;;;;;5014080;28;20177;-77
2022/03/22 05:15:42;;;;;;;16.10;10.40;;;10.70;56.00;;;;;;5031630;28;20173;-77
2022/03/22 05:18:07;;;;;;;11.10;9.20;;;10.70;56.00;;;;;;5031350;28;20205;-77
2022/03/22 05:20:33;;;;;;;11.97;9.83;;;10.70;56.10;;;;;;5031423;28;20173;-78
2022/03/22 05:22:59;;;;;;;10.70;9.57;;;10.70;56.10;;;;;;5031658;28;20174;-77
2022/03/22 05:25:30;;;;;;;10.07;8.90;;;10.70;56.10;;;;;;5031435;28;20599;-77
2022/03/22 05:27:58;;;;;;;10.93;9.50;;;10.70;56.10;;;;;;5031025;28;20209;-78
2022/03/22 05:30:24;;;;;;;11.25;10.02;;;10.60;56.10;;;;;;5031359;28;20544;-78
2022/03/22 05:32:50;;;;;;;12.53;9.30;;;10.60;56.10;;;;;;5031353;28;20165;-78
2022/03/22 05:35:15;;;;;;;13.40;9.93;;;10.60;56.20;;;;;;5031410;28;20248;-78
2022/03/22 05:37:41;;;;;;;10.90;9.23;;;10.60;56.30;;;;;;5032555;28;20185;-77
2022/03/22 05:40:07;;;;;;;12.30;9.63;;;10.60;56.30;;;;;;5035241;28;20170;-78
2022/03/22 05:42:36;;;;;;;10.77;9.35;;;10.60;56.40;;;;;;5017701;28;20186;-78
2022/03/22 05:45:03;;;;;;;12.23;9.35;;;10.60;56.40;;;;;;5035384;28;20166;-78
2022/03/22 05:47:28;;;;;;;17.25;10.50;;;10.60;56.40;;;;;;5035055;28;20205;-77
2022/03/22 05:49:55;;;;;;;15.90;9.80;;;10.60;56.50;;;;;;5035116;28;20169;-78
2022/03/22 05:52:21;;;;;;;11.77;9.20;;;10.60;56.40;;;;;;5035394;28;20169;-77
2022/03/22 05:54:46;;;;;;;12.37;10.63;;;10.60;56.40;;;;;;5035494;28;20626;-78
2022/03/22 05:57:12;;;;;;;12.60;8.47;;;10.60;56.40;;;;;;5034677;28;20568;-77
2022/03/22 05:59:38;;;;;;;11.03;9.30;;;10.70;56.40;;;;;;5034813;28;20506;-76
2022/03/22 06:02:04;;;;;;;9.77;8.77;;;10.70;56.30;;;;;;5017239;28;20176;-78
2022/03/22 06:04:30;;;;;;;10.93;8.95;;;10.70;56.30;;;;;;5017291;28;20693;-77
2022/03/22 06:06:55;;;;;;;9.93;8.90;;;10.80;56.40;;;;;;5034932;28;20213;-77
2022/03/22 06:09:21;;;;;;;9.03;8.13;;;10.80;56.30;;;;;;5034493;28;20264;-77
2022/03/22 06:11:47;;;;;;;10.20;8.80;;;10.80;56.30;;;;;;5034986;28;20170;-77
2022/03/22 06:14:13;;;;;;;9.60;8.32;;;10.90;56.40;;;;;;5034664;28;20169;-76
2022/03/22 06:16:39;;;;;;;11.40;8.87;;;10.90;56.50;;;;;;5022798;28;20166;-77
2022/03/22 06:19:05;;;;;;;10.23;8.97;;;11.00;56.50;;;;;;5034220;28;20612;-76
2022/03/22 06:21:30;;;;;;;12.30;8.97;;;11.00;56.50;;;;;;5034496;28;20166;-77
2022/03/22 06:23:56;;;;;;;11.23;8.97;;;11.00;56.40;;;;;;5034526;28;20205;-76
2022/03/22 06:26:22;;;;;;;11.00;8.83;;;11.00;56.40;;;;;;5034380;28;20212;-76
2022/03/22 06:28:48;;;;;;;8.73;7.73;;;11.10;56.50;;;;;;5034170;28;20190;-77
2022/03/22 06:31:14;;;;;;;11.65;10.10;;;11.10;56.60;;;;;;5034515;28;20169;-77
2022/03/22 06:33:40;;;;;;;13.93;9.87;;;11.10;56.30;;;;;;5017153;28;20177;-77
2022/03/22 06:36:08;;;;;;;9.03;8.13;;;11.20;56.40;;;;;;5034882;28;20659;-77
2022/03/22 06:38:35;;;;;;;13.45;9.43;;;11.20;56.50;;;;;;5017623;28;20620;-76
2022/03/22 06:41:01;;;;;;;11.38;9.48;;;11.30;56.40;;;;;;5036726;28;20170;-76
2022/03/22 06:43:26;;;;;;;13.40;10.63;;;11.40;56.30;;;;;;5038416;28;20308;-76
2022/03/22 06:45:52;;;;;;;13.43;9.60;;;11.40;55.90;;;;;;5044480;28;20723;-78
2022/03/22 06:48:18;;;;;;;13.80;9.83;;;11.40;56.00;;;;;;5036759;28;20205;-78
2022/03/22 06:50:47;;;;;;;12.90;9.73;;;11.50;55.70;;;;;;5021905;28;20173;-77
2022/03/22 06:53:13;;;;;;;11.88;8.77;;;11.50;55.60;;;;;;5048050;28;20618;-77
2022/03/22 06:55:39;;;;;;;14.70;10.87;;;11.60;55.90;;;;;;5021128;28;20166;-77
2022/03/22 06:58:05;;;;;;;13.05;10.30;;;11.60;55.50;;;;;;5038142;28;20204;-78
2022/03/22 07:00:31;;;;;;;13.57;10.20;;;11.70;55.40;;;;;;5022121;28;20212;-77
2022/03/22 07:02:58;;;;;;;11.10;9.30;;;11.70;55.00;;;;;;5020187;28;20170;-77
2022/03/22 07:05:24;;;;;;;11.15;9.50;;;11.80;54.90;;;;;;5034668;28;20627;-77
2022/03/22 07:07:50;;;;;;;12.57;8.68;;;11.80;54.80;;;;;;5029578;28;20267;-77
2022/03/22 07:10:18;;;;;;;10.43;9.27;;;11.90;55.00;;;;;;5034033;28;20536;-76
2022/03/22 07:12:53;;;;;;;13.82;10.63;;;12.00;55.10;;;;;;5016226;28;20603;-76
2022/03/22 07:15:28;;;;;;;13.65;11.02;;;12.10;54.90;;;;;;5016010;28;20162;-75
2022/03/22 07:17:54;;;;;;;12.45;11.15;;;12.10;54.40;;;;;;5033418;28;20197;-75
2022/03/22 07:20:21;;;;;;;12.63;9.60;;;12.20;54.00;;;;;;5033150;28;20177;-75
2022/03/22 07:22:47;;;;;;;11.35;10.15;;;12.30;54.50;;;;;;5025165;28;20170;-77
2022/03/22 07:25:13;;;;;;;10.57;9.52;;;12.30;53.90;;;;;;5032938;28;20272;-77
2022/03/22 07:27:44;;;;;;;12.17;9.70;;;12.40;54.10;;;;;;5033199;28;20640;-78
2022/03/22 07:30:11;;;;;;;12.70;10.38;;;12.60;53.60;;;;;;5037895;28;20533;-76
2022/03/22 07:32:38;;;;;;;10.95;9.85;;;13.00;54.50;;;;;;5033306;28;20174;-77
2022/03/22 07:35:05;;;;;;;10.90;9.77;;;13.50;54.30;;;;;;5032972;28;20169;-77
2022/03/22 07:37:30;;;;;;;11.17;9.00;;;14.10;54.10;;;;;;5012764;28;20633;-77
2022/03/22 07:39:57;;;;;;;9.93;8.93;;;14.80;56.30;;;;;;5032735;28;21115;-77
2022/03/22 07:42:30;;;;;;;14.47;8.70;;;15.60;55.10;;;;;;5015310;28;20174;-78
2022/03/22 07:45:02;;;;;;;10.20;9.10;;;16.30;54.80;;;;;;5030800;28;20592;-77
2022/03/22 07:47:29;;;;;;;10.70;9.00;;;16.90;53.60;;;;;;5032466;28;20743;-78
2022/03/22 07:53:01;;;;;;;9.80;8.63;;;18.10;52.70;;;;;;5032571;28;20572;-79
2022/03/22 07:55:31;;;;;;;9.73;8.53;;;18.80;53.80;;;;;;5015245;28;20573;-79
2022/03/22 07:57:57;;;;;;;9.10;8.10;;;19.50;53.00;;;;;;5014685;28;20616;-80
2022/03/22 08:00:24;;;;;;;10.20;9.20;;;20.10;53.30;;;;;;5032299;28;20618;-79
2022/03/22 08:02:52;;;;;;;8.90;8.00;;;20.50;50.50;;;;;;5032307;28;20827;-80
2022/03/22 08:05:18;;;;;;;13.07;8.63;;;21.00;51.60;;;;;;5032640;28;20568;-80
2022/03/22 08:07:45;;;;;;;9.53;8.57;;;21.70;51.80;;;;;;5017997;28;20658;-80
2022/03/22 08:10:11;;;;;;;8.63;7.33;;;22.30;51.10;;;;;;5031743;28;20675;-80
2022/03/22 08:12:37;;;;;;;9.73;8.73;;;22.80;51.30;;;;;;4994131;28;20600;-79
2022/03/22 08:15:03;;;;;;;10.10;9.00;;;23.30;48.30;;;;;;5011461;28;20581;-79
2022/03/22 08:17:29;;;;;;;8.63;7.73;;;23.70;49.60;;;;;;5012065;28;20206;-78
2022/03/22 08:19:55;;;;;;;15.27;9.23;;;24.20;48.60;;;;;;5012351;28;20565;-77
2022/03/22 08:22:20;;;;;;;10.33;9.20;;;24.60;46.60;;;;;;5013021;28;20177;-77
2022/03/22 08:24:46;;;;;;;9.17;8.40;;;24.90;47.50;;;;;;5039650;28;20166;-77
2022/03/22 08:27:12;;;;;;;9.70;7.97;;;25.20;47.20;;;;;;5019012;28;20209;-77
2022/03/22 08:29:38;;;;;;;10.40;9.40;;;25.70;46.80;;;;;;5042396;28;20205;-77
2022/03/22 08:32:04;;;;;;;10.40;8.93;;;26.10;44.40;;;;;;5043204;28;20585;-77
2022/03/22 08:34:30;;;;;;;9.40;8.50;;;26.30;43.00;;;;;;5049705;28;20173;-78
2022/03/22 08:36:56;;;;;;;9.77;8.87;;;26.20;41.20;;;;;;5038857;28;21032;-78
2022/03/22 08:39:21;;;;;;;9.60;8.70;;;26.00;39.80;;;;;;5024211;28;20632;-77
2022/03/22 08:41:47;;;;;;;11.10;10.00;;;25.70;39.50;;;;;;5014277;28;20188;-77
2022/03/22 08:44:13;;;;;;;9.70;8.70;;;25.40;38.30;;;;;;5036083;28;20231;-78
2022/03/22 08:46:39;;;;;;;9.10;8.30;;;25.30;39.30;;;;;;5031610;28;20169;-77
2022/03/22 08:49:05;;;;;;;9.33;8.43;;;25.50;40.70;;;;;;5031406;28;20592;-77
2022/03/22 08:51:31;;;;;;;10.67;8.17;;;25.70;40.00;;;;;;5031703;28;20707;-78
2022/03/22 08:53:57;;;;;;;11.47;8.40;;;26.00;40.20;;;;;;5014033;28;20180;-78
2022/03/22 08:56:22;;;;;;;9.37;8.47;;;26.10;39.90;;;;;;5031760;28;20580;-78
2022/03/22 08:58:51;;;;;;;8.90;7.70;;;26.20;38.60;;;;;;5025442;28;20182;-78
2022/03/22 09:01:18;;;;;;;9.63;8.70;;;26.50;39.40;;;;;;5031241;28;20178;-78
2022/03/22 09:06:07;;;;;;;8.53;7.63;;;26.60;39.30;;;;;;5031276;28;20577;-77
2022/03/22 09:06:29;;;;;;;8.60;7.80;;;27.00;39.80;;;;;;5031277;28;20592;-78
2022/03/22 09:08:55;;;;;;;9.47;8.57;;;27.20;38.10;;;;;;5013566;28;20618;-78
2022/03/22 09:11:20;;;;;;;8.77;8.00;;;27.10;36.30;;;;;;5031719;28;20198;-78
2022/03/22 09:13:46;;;;;;;8.40;7.60;;;27.30;38.20;;;;;;5013989;28;20197;-78
2022/03/22 09:16:14;;;;;;;8.70;6.90;;;27.50;37.80;;;;;;5018268;28;20752;-78
2022/03/22 09:18:39;;;;;;;8.63;7.73;;;27.60;37.60;;;;;;5045329;28;20614;-78
2022/03/22 09:21:05;;;;;;;8.80;8.00;;;27.70;37.00;;;;;;5055737;28;20583;-78
2022/03/22 09:23:31;;;;;;;8.87;8.07;;;27.70;36.30;;;;;;5058129;28;20168;-78
2022/03/22 09:25:57;;;;;;;8.97;8.17;;;27.80;36.20;;;;;;5040362;28;20184;-78
2022/03/22 09:28:23;;;;;;;9.20;8.20;;;28.00;36.30;;;;;;5057732;28;20197;-78
2022/03/22 09:30:48;;;;;;;9.07;8.23;;;28.20;35.50;;;;;;5053136;28;21188;-78
2022/03/22 09:33:14;;;;;;;7.90;7.20;;;28.20;34.70;;;;;;5046502;28;20166;-78
2022/03/22 09:35:40;;;;;;;8.50;7.80;;;28.30;35.60;;;;;;5028560;28;20174;-78
2022/03/22 09:38:06;;;;;;;9.40;8.60;;;28.60;33.90;;;;;;5000038;28;20217;-78
2022/03/22 09:40:32;;;;;;;8.70;7.90;;;28.80;35.20;;;;;;5018599;28;20209;-77
2022/03/22 09:42:58;;;;;;;9.00;7.80;;;29.30;35.40;;;;;;5037713;28;21370;-78
2022/03/22 09:45:26;;;;;;;10.17;9.23;;;29.20;33.90;;;;;;5030682;28;20201;-77
2022/03/22 09:47:53;;;;;;;8.70;8.00;;;29.30;33.60;;;;;;5035865;28;20288;-77
2022/03/22 09:50:20;;;;;;;8.30;7.60;;;29.40;33.30;;;;;;5037672;28;20584;-77
2022/03/22 09:52:46;;;;;;;9.67;8.67;;;29.30;32.80;;;;;;5037761;28;20614;-78
2022/03/22 09:55:13;;;;;;;9.67;8.67;;;29.50;33.00;;;;;;5036441;28;20652;-79
2022/03/22 09:57:44;;;;;;;8.17;7.40;;;29.60;32.10;;;;;;5034504;28;20689;-77
2022/03/22 10:00:13;;;;;;;9.63;8.70;;;29.70;32.50;;;;;;5029248;28;20577;-78
2022/03/22 10:02:40;;;;;;;6.73;6.13;;;29.80;32.10;;;;;;5027324;28;20642;-78
2022/03/22 10:05:06;;;;;;;8.47;7.67;;;30.00;32.40;;;;;;5029648;28;20596;-78
2022/03/22 10:07:32;;;;;;;7.73;7.03;;;30.40;32.70;;;;;;5037297;28;20666;-78
2022/03/22 10:10:04;;;;;;;9.37;8.47;;;30.40;31.20;;;;;;5037606;28;20548;-78
2022/03/22 10:12:35;;;;;;;9.03;8.17;;;30.30;30.30;;;;;;5037568;28;20188;-78
2022/03/22 10:15:13;;;;;;;9.03;8.20;;;30.20;29.60;;;;;;5037313;28;20568;-79
2022/03/22 10:17:40;;;;;;;8.50;7.73;;;30.10;29.40;;;;;;5019336;28;20629;-78
2022/03/22 10:20:07;;;;;;;10.93;8.17;;;30.10;29.80;;;;;;5034043;28;21011;-78
2022/03/22 10:22:37;;;;;;;7.37;6.67;;;29.90;29.10;;;;;;5035640;28;20621;-78
2022/03/22 10:25:06;;;;;;;7.40;6.80;;;30.10;29.60;;;;;;5019655;28;20574;-79
2022/03/22 10:27:34;;;;;;;9.20;8.30;;;30.20;29.40;;;;;;5017391;28;21218;-78
2022/03/22 10:30:05;;;;;;;8.50;7.63;;;30.10;29.00;;;;;;5016879;28;20909;-78
2022/03/22 10:32:33;;;;;;;7.90;7.23;;;30.00;29.20;;;;;;5034814;28;20603;-79
2022/03/22 10:35:26;;;;;;;8.03;7.17;;;30.20;29.40;;;;;;5040006;28;20611;-79
2022/03/22 10:37:54;;;;;;;8.20;7.40;;;30.10;28.90;;;;;;5024271;28;20720;-78
2022/03/22 10:40:40;;;;;;;6.93;6.23;;;30.20;29.00;;;;;;5011950;28;20589;-78
2022/03/22 10:43:12;;;;;;;7.70;7.10;;;30.00;27.50;;;;;;5028581;28;20676;-79
2022/03/22 10:46:01;;;;;;;6.17;5.73;;;29.80;28.40;;;;;;5042849;28;20587;-78
2022/03/22 10:48:33;;;;;;;8.10;7.40;;;29.70;28.40;;;;;;5032571;28;20639;-78
2022/03/22 10:51:03;;;;;;;7.93;6.77;;;29.60;27.80;;;;;;5016962;28;20572;-78
2022/03/22 10:53:31;;;;;;;9.27;8.37;;;29.10;27.40;;;;;;5016997;28;20576;-78
2022/03/22 10:55:58;;;;;;;7.00;6.40;;;28.70;27.00;;;;;;5033924;28;20574;-78
2022/03/22 10:58:26;;;;;;;8.23;7.60;;;28.40;27.70;;;;;;5033521;28;20600;-78
2022/03/22 11:00:53;;;;;;;8.50;7.10;;;28.20;27.70;;;;;;5033571;28;20580;-78
2022/03/22 11:03:19;;;;;;;8.67;7.13;;;28.10;27.50;;;;;;5033700;28;20572;-77
2022/03/22 11:05:51;;;;;;;7.20;6.60;;;28.10;28.40;;;;;;5033862;28;20617;-78
2022/03/22 11:08:22;;;;;;;7.67;6.97;;;28.30;28.60;;;;;;5033449;28;20632;-79
2022/03/22 11:10:49;;;;;;;7.97;7.13;;;28.50;28.60;;;;;;5034455;28;21523;-78
2022/03/22 11:13:15;;;;;;;7.67;7.00;;;28.60;28.40;;;;;;5027470;28;20578;-78
2022/03/22 11:15:48;;;;;;;7.97;6.80;;;28.50;28.60;;;;;;5032350;28;20580;-77
2022/03/22 11:18:18;;;;;;;8.57;7.63;;;28.50;28.20;;;;;;5029574;28;20216;-78
2022/03/22 11:20:55;;;;;;;6.60;6.10;;;28.30;28.20;;;;;;5032757;28;20580;-78
2022/03/22 11:23:23;;;;;;;7.10;6.50;;;28.30;28.10;;;;;;5010940;28;20601;-77
2022/03/22 11:25:50;;;;;;;8.27;7.47;;;28.40;28.50;;;;;;5013494;28;20592;-77
2022/03/22 11:28:21;;;;;;;9.37;6.60;;;28.60;28.60;;;;;;5011248;28;20701;-78
2022/03/22 11:30:49;;;;;;;7.73;7.00;;;28.80;28.20;;;;;;5032605;28;20557;-78
2022/03/22 11:36:14;;;;;;;7.70;7.00;;;29.20;28.40;;;;;;5032968;28;20576;-78
2022/03/22 11:38:47;;;;;;;8.10;7.40;;;29.40;28.30;;;;;;5032032;28;20600;-78
2022/03/22 11:44:32;;;;;;;8.10;7.40;;;29.70;28.30;;;;;;5032478;28;20999;-77
2022/03/22 11:47:16;;;;;;;7.40;6.90;;;29.90;29.00;;;;;;5014841;28;20961;-77
2022/03/22 11:49:57;;;;;;;8.10;7.30;;;30.00;28.30;;;;;;5036015;28;20577;-77
2022/03/22 11:52:24;;;;;;;8.53;7.63;;;30.00;28.00;;;;;;5032606;28;20590;-77
2022/03/22 11:54:58;;;;;;;9.47;8.57;;;30.10;28.00;;;;;;5032396;28;20575;-78
2022/03/22 11:57:25;;;;;;;8.97;7.70;;;30.10;27.30;;;;;;5014713;28;20572;-77
2022/03/22 11:59:54;;;;;;;8.10;7.37;;;29.40;26.30;;;;;;5032239;28;20561;-78
2022/03/22 12:02:30;;;;;;;7.50;6.90;;;29.10;27.10;;;;;;5032320;28;21150;-77
2022/03/22 12:04:57;;;;;;;6.10;5.60;;;28.90;27.20;;;;;;5014601;28;20572;-77
2022/03/22 12:07:28;;;;;;;7.87;6.80;;;28.90;27.50;;;;;;5031225;28;20616;-78
2022/03/22 12:10:05;;;;;;;6.90;6.20;;;28.80;27.30;;;;;;5012552;28;20553;-77
2022/03/22 12:12:32;;;;;;;7.73;6.00;;;28.70;27.50;;;;;;5031553;28;20573;-77
2022/03/22 12:15:03;;;;;;;6.50;5.90;;;28.70;27.60;;;;;;5014340;28;20652;-77
2022/03/22 12:17:29;;;;;;;7.73;5.60;;;28.60;27.30;;;;;;5014212;28;20710;-78
2022/03/22 12:20:00;;;;;;;5.73;5.23;;;28.50;27.40;;;;;;5018384;28;20605;-78
2022/03/22 12:22:29;;;;;;;5.63;5.07;;;28.40;27.20;;;;;;5043831;28;20582;-78
2022/03/22 12:24:57;;;;;;;7.43;5.70;;;28.40;27.40;;;;;;5044580;28;20584;-78
2022/03/22 12:27:23;;;;;;;6.23;5.60;;;28.30;27.20;;;;;;5014404;28;20628;-77
2022/03/22 12:29:49;;;;;;;7.03;6.10;;;28.20;26.90;;;;;;5031438;28;20572;-78
2022/03/22 12:32:21;;;;;;;7.73;5.30;;;28.10;26.80;;;;;;5032251;28;20177;-78
2022/03/22 12:34:48;;;;;;;5.70;5.20;;;27.70;26.00;;;;;;5014062;28;20572;-78
2022/03/22 12:37:16;;;;;;;6.03;5.50;;;27.40;26.20;;;;;;4997384;28;20580;-78
2022/03/22 12:39:43;;;;;;;6.60;6.00;;;27.00;26.40;;;;;;5031791;28;20666;-78
2022/03/22 12:42:12;;;;;;;6.60;6.00;;;26.70;25.80;;;;;;5031733;28;20560;-77
2022/03/22 12:44:38;;;;;;;6.43;5.80;;;26.40;26.10;;;;;;5031297;28;20667;-77
2022/03/22 12:47:05;;;;;;;7.00;6.40;;;26.10;25.80;;;;;;5013678;28;20620;-78
2022/03/22 12:49:39;;;;;;;6.67;6.03;;;25.80;25.70;;;;;;5013820;28;20605;-80
2022/03/22 12:52:07;;;;;;;5.90;5.40;;;25.50;25.80;;;;;;5031275;28;20618;-79
2022/03/22 12:54:40;;;;;;;6.47;5.87;;;25.20;26.20;;;;;;5029441;28;20635;-80
2022/03/22 12:57:13;;;;;;;10.13;5.67;;;25.00;26.20;;;;;;5003661;28;20593;-79
2022/03/22 12:59:40;;;;;;;6.13;5.53;;;24.70;25.90;;;;;;5026658;28;20598;-80
2022/03/22 13:02:06;;;;;;;6.63;6.03;;;24.40;26.00;;;;;;5032897;28;20583;-79
2022/03/22 13:04:38;;;;;;;5.73;5.13;;;24.30;26.20;;;;;;5029750;28;20604;-79
2022/03/22 13:07:06;;;;;;;5.63;5.13;;;24.20;26.20;;;;;;5001217;28;20632;-79
2022/03/22 13:12:17;;;;;;;5.67;5.17;;;24.10;26.40;;;;;;5030937;28;20572;-80
2022/03/22 13:15:04;;;;;;;6.77;6.17;;;24.00;26.50;;;;;;5009779;28;20600;-80